VCCC/RML METAR and TAF weather

Enter ICAO airport designator
Station Type Date Time Source
VCCC METAR 2022/09/29 18:00 UTC NOAA

VCCC 291800Z 23003KT 9999 BKN016 FEW018TCU(NE/E) 28/24 Q1010 A2984


Station Type Date Time Source
VCCC Decoded METAR 2022/09/29 18:00 UTC NOAA

Ratmalana, Sri Lanka (VCCC) 06-49N 079-53E 5M
Sep 29, 2022 - 02:00 PM EDT / 2022.09.29 1800 UTC
Wind: from the SW (230 degrees) at 3 MPH (3 KT):0
Visibility: greater than 7 mile(s):0
Sky conditions: mostly cloudy
Weather: Towering cumulus clouds observed
Temperature: 82 F (28 C)
Dew Point: 75 F (24 C)
Relative Humidity: 78%
Pressure (altimeter): 29.84 in. Hg (1010 hPa)
ob: VCCC 291800Z 23003KT 9999 BKN016 FEW018TCU(NE/E) 28/24 Q1010 A2984
cycle: 18

Station Type Date Time Source
VCCC TAF UTC NOAA

Error!

Example: see airport list